Terminal Aerodrome Forecast
Issued by NWS

Home | Current Version | Previous Version | Text Only | Print | Product List | Glossary On
Versions: 1 2 3 4 5 6 7 8 9 10 11 12 13 14 15
000
FTUS43 KABR 272324
TAFPIR
TAF
KPIR 272324Z 2800/2824 02014KT P6SM OVC100
     FM280400 04007KT P6SM -SHSN OVC070
     FM280700 03009KT P6SM -SHSN OVC025
     FM280900 02008KT P6SM OVC025
     FM281400 02008KT P6SM BKN008
     FM281800 02008KT P6SM OVC010
     FM282200 01008KT P6SM BKN020=

USA.gov is the U.S. government's official web portal to all federal, state and local government web resources and services.